TAF Text Data
IDs:
Format:
Raw Decoded Include METAR

Data at: 1251 UTC 23 Jun 2021

KPWM 231120Z 2312/2412 29006KT P6SM FEW060 FEW150 FEW250
  FM231500 30010G17KT P6SM FEW250
  FM231800 24012G18KT P6SM SKC
  FM240000 VRB03KT P6SM SKC